Time;durP1;ratioP1;P1;durP2;ratioP2;P2;SDS_P1;SDS_P2;PMS_P1;PMS_P2;Temp;Humidity;BMP_temperature;BMP_pressure;BME280_temperature;BME280_humidity;BME280_pressure;Samples;Min_cycle;Max_cycle;Signal;HPM_P1;HPM_P2
2021/03/02 00:01:59;;;;;;;22.27;11.40;;;;;;;-2.54;100.00;102760.09;5009677;28;20462;-73
2021/03/02 00:04:25;;;;;;;23.17;11.77;;;;;;;-2.64;100.00;102762.84;5013086;28;20924;-72
2021/03/02 00:06:53;;;;;;;23.20;11.23;;;;;;;-2.71;100.00;102756.47;5011305;28;20450;-72
2021/03/02 00:09:19;;;;;;;20.90;11.53;;;;;;;-2.66;100.00;102755.09;5008313;28;20449;-73
2021/03/02 00:11:47;;;;;;;22.20;11.17;;;;;;;-2.82;100.00;102758.38;5009971;28;20469;-73
2021/03/02 00:14:13;;;;;;;17.93;10.23;;;;;;;-2.70;100.00;102756.59;5010037;28;20455;-74
2021/03/02 00:16:43;;;;;;;19.80;11.10;;;;;;;-2.71;100.00;102762.50;5011330;28;20971;-71
2021/03/02 00:19:14;;;;;;;20.97;10.70;;;;;;;-2.80;100.00;102764.44;5020745;28;20445;-73
2021/03/02 00:21:42;;;;;;;23.97;10.73;;;;;;;-2.72;100.00;102757.28;4992186;28;20481;-72
2021/03/02 00:24:10;;;;;;;22.47;11.03;;;;;;;-2.71;100.00;102752.28;5018484;28;20784;-74
2021/03/02 00:26:41;;;;;;;21.00;10.47;;;;;;;-2.78;100.00;102751.78;5012475;28;20507;-73
2021/03/02 00:29:07;;;;;;;23.47;12.27;;;;;;;-2.94;100.00;102748.25;5007929;28;20460;-74
2021/03/02 00:31:34;;;;;;;22.90;10.97;;;;;;;-2.77;100.00;102748.44;5007321;28;20472;-74
2021/03/02 00:34:00;;;;;;;22.00;10.40;;;;;;;-2.77;100.00;102744.22;5018765;28;20445;-73
2021/03/02 00:36:27;;;;;;;19.93;10.43;;;;;;;-2.93;100.00;102754.28;5026156;28;20786;-72
2021/03/02 00:38:53;;;;;;;26.47;11.13;;;;;;;-2.73;100.00;102756.38;5008954;28;20975;-73
2021/03/02 00:41:19;;;;;;;24.57;11.17;;;;;;;-2.82;100.00;102749.84;4995654;28;20517;-73
2021/03/02 00:43:46;;;;;;;24.10;11.40;;;;;;;-2.84;100.00;102754.84;5015162;28;20242;-73
2021/03/02 00:46:12;;;;;;;23.80;11.47;;;;;;;-2.83;100.00;102754.06;5019780;28;20453;-72
2021/03/02 00:48:38;;;;;;;20.87;10.60;;;;;;;-2.85;100.00;102750.50;5020181;28;20461;-73
2021/03/02 00:51:04;;;;;;;20.27;10.83;;;;;;;-2.92;100.00;102751.81;5014154;28;20548;-73
2021/03/02 00:53:31;;;;;;;21.83;10.60;;;;;;;-3.06;100.00;102752.59;5025598;28;20201;-73
2021/03/02 00:55:57;;;;;;;20.97;10.27;;;;;;;-3.03;100.00;102747.69;5016519;28;20450;-71
2021/03/02 00:58:23;;;;;;;24.30;11.23;;;;;;;-3.14;100.00;102739.34;5001556;28;20988;-72
2021/03/02 01:00:49;;;;;;;19.07;10.00;;;;;;;-3.02;100.00;102739.25;5009026;28;20480;-72
2021/03/02 01:03:16;;;;;;;22.57;10.73;;;;;;;-2.97;100.00;102748.09;4990631;28;20454;-73
2021/03/02 01:05:42;;;;;;;23.03;10.27;;;;;;;-2.99;100.00;102748.75;5016092;28;20512;-74
2021/03/02 01:08:15;;;;;;;20.23;9.87;;;;;;;-2.96;100.00;102742.19;5020276;28;20210;-74
2021/03/02 01:10:43;;;;;;;22.67;11.10;;;;;;;-3.01;100.00;102735.91;4995243;28;20500;-73
2021/03/02 01:13:11;;;;;;;19.20;11.00;;;;;;;-3.19;100.00;102737.31;4995005;28;20492;-72
2021/03/02 01:15:37;;;;;;;26.90;12.13;;;;;;;-3.13;100.00;102735.13;5016940;28;20748;-73
2021/03/02 01:18:03;;;;;;;21.40;11.00;;;;;;;-3.01;100.00;102727.38;5007759;28;20458;-73
2021/03/02 01:20:29;;;;;;;27.83;11.97;;;;;;;-3.02;100.00;102726.50;5021578;28;20226;-72
2021/03/02 01:22:55;;;;;;;23.87;11.17;;;;;;;-3.07;100.00;102727.88;5029191;28;20492;-73
2021/03/02 01:25:21;;;;;;;23.07;10.73;;;;;;;-3.12;100.00;102726.69;5023035;28;20209;-71
2021/03/02 01:27:48;;;;;;;20.20;10.37;;;;;;;-3.06;100.00;102720.31;5016140;28;20205;-72
2021/03/02 01:30:16;;;;;;;19.70;9.73;;;;;;;-3.10;100.00;102725.13;4993640;28;20572;-71
2021/03/02 01:32:43;;;;;;;24.67;11.50;;;;;;;-3.07;100.00;102722.78;5010773;28;20489;-74
2021/03/02 01:35:12;;;;;;;19.43;10.27;;;;;;;-3.10;100.00;102714.91;5012763;28;20485;-72
2021/03/02 01:37:39;;;;;;;25.30;11.03;;;;;;;-3.30;100.00;102718.75;5019137;28;20440;-73
2021/03/02 01:40:09;;;;;;;21.80;10.57;;;;;;;-3.15;100.00;102716.28;5019562;28;20466;-71
2021/03/02 01:42:36;;;;;;;22.77;10.33;;;;;;;-3.22;100.00;102711.59;5001419;28;20572;-70
2021/03/02 01:45:06;;;;;;;22.10;11.37;;;;;;;-3.26;100.00;102711.38;4994274;28;20538;-73
2021/03/02 01:47:33;;;;;;;18.53;9.60;;;;;;;-3.24;100.00;102708.94;5016388;28;20449;-72
2021/03/02 01:49:59;;;;;;;19.90;10.77;;;;;;;-3.25;100.00;102704.63;4995370;28;20496;-72
2021/03/02 01:52:26;;;;;;;18.27;9.97;;;;;;;-3.14;100.00;102695.97;4994225;28;20468;-72
2021/03/02 01:54:53;;;;;;;21.20;10.00;;;;;;;-3.19;100.00;102699.91;4997559;28;20479;-71
2021/03/02 01:57:19;;;;;;;22.23;11.03;;;;;;;-3.14;100.00;102695.09;5016302;28;20535;-74
2021/03/02 01:59:46;;;;;;;22.73;11.40;;;;;;;-3.22;100.00;102701.38;5017794;28;20557;-72
2021/03/02 02:02:22;;;;;;;24.97;10.87;;;;;;;-3.26;100.00;102698.63;5010267;28;20847;-72
2021/03/02 02:04:54;;;;;;;20.93;10.27;;;;;;;-3.33;100.00;102699.03;5017942;28;20450;-73
2021/03/02 02:07:30;;;;;;;20.90;10.50;;;;;;;-3.26;100.00;102700.28;5013456;28;20853;-73
2021/03/02 02:10:03;;;;;;;20.73;9.67;;;;;;;-3.26;100.00;102698.63;5010194;28;20459;-73
2021/03/02 02:12:34;;;;;;;21.40;10.80;;;;;;;-3.21;100.00;102701.47;5012915;28;20458;-74
2021/03/02 02:15:04;;;;;;;18.73;9.27;;;;;;;-3.10;100.00;102708.13;5009377;28;20473;-73
2021/03/02 02:17:40;;;;;;;19.70;9.80;;;;;;;-3.25;100.00;102702.06;5011325;28;20806;-73
2021/03/02 02:20:08;;;;;;;20.83;9.37;;;;;;;-3.33;100.00;102704.13;5007274;28;20952;-72
2021/03/02 02:22:57;;;;;;;26.07;10.73;;;;;;;-3.32;100.00;102700.78;5016305;28;21059;-72
2021/03/02 02:25:34;;;;;;;21.00;9.63;;;;;;;-3.37;100.00;102698.75;5011594;28;20482;-73
2021/03/02 02:28:03;;;;;;;21.50;10.83;;;;;;;-3.43;100.00;102702.66;5016010;28;20461;-71
2021/03/02 02:30:31;;;;;;;23.40;10.00;;;;;;;-3.36;100.00;102700.50;5009703;28;20522;-73
2021/03/02 02:32:59;;;;;;;21.53;10.67;;;;;;;-3.29;100.00;102710.31;5008256;28;20501;-73
2021/03/02 02:35:28;;;;;;;23.20;10.70;;;;;;;-3.25;100.00;102707.19;4994676;28;20470;-73
2021/03/02 02:37:55;;;;;;;20.77;10.43;;;;;;;-3.19;100.00;102704.13;4988636;28;20467;-73
2021/03/02 02:40:24;;;;;;;17.20;9.43;;;;;;;-3.33;100.00;102708.34;5015745;28;20473;-72
2021/03/02 02:42:53;;;;;;;19.80;9.90;;;;;;;-3.33;100.00;102709.22;5007875;28;20502;-74
2021/03/02 02:45:22;;;;;;;15.57;9.00;;;;;;;-3.44;100.00;102707.66;5027774;28;20944;-71
2021/03/02 02:47:50;;;;;;;23.40;9.80;;;;;;;-3.38;100.00;102697.84;5004638;28;20441;-73
2021/03/02 02:50:18;;;;;;;20.60;9.97;;;;;;;-3.44;100.00;102708.53;4998096;28;20842;-72
2021/03/02 02:52:45;;;;;;;17.30;9.40;;;;;;;-3.47;100.00;102707.47;5017860;28;20457;-72
2021/03/02 02:55:15;;;;;;;22.37;10.60;;;;;;;-3.64;100.00;102704.72;5015820;28;20454;-72
2021/03/02 02:57:46;;;;;;;21.60;10.10;;;;;;;-3.50;100.00;102709.81;4993704;28;20876;-71
2021/03/02 03:00:15;;;;;;;18.40;9.40;;;;;;;-3.39;100.00;102713.03;5008528;28;20483;-73
2021/03/02 03:02:47;;;;;;;21.60;10.10;;;;;;;-3.36;100.00;102705.59;5020004;28;20534;-71
2021/03/02 03:05:18;;;;;;;20.73;10.43;;;;;;;-3.49;100.00;102712.47;5011714;28;20444;-72
2021/03/02 03:07:48;;;;;;;18.20;9.17;;;;;;;-3.47;100.00;102710.88;5016487;28;20456;-72
2021/03/02 03:10:15;;;;;;;21.77;10.40;;;;;;;-3.29;100.00;102712.84;5010137;28;20474;-72
2021/03/02 03:12:44;;;;;;;21.10;9.77;;;;;;;-3.40;100.00;102704.53;5015879;28;20462;-72
2021/03/02 03:15:14;;;;;;;19.67;9.80;;;;;;;-3.39;100.00;102701.19;5014775;28;20450;-73
2021/03/02 03:17:45;;;;;;;24.13;9.90;;;;;;;-3.47;100.00;102699.81;5012147;28;20461;-73
2021/03/02 03:20:13;;;;;;;22.47;9.23;;;;;;;-3.47;100.00;102695.56;5013674;28;20479;-72
2021/03/02 03:22:41;;;;;;;21.30;9.23;;;;;;;-3.58;100.00;102694.03;5010061;28;20495;-72
2021/03/02 03:25:10;;;;;;;17.93;9.27;;;;;;;-3.53;100.00;102696.88;5016029;28;20535;-73
2021/03/02 03:27:40;;;;;;;20.57;9.33;;;;;;;-3.59;100.00;102699.88;5014821;28;21070;-73
2021/03/02 03:30:10;;;;;;;20.33;9.07;;;;;;;-3.66;100.00;102697.72;5016303;28;20525;-73
2021/03/02 03:32:38;;;;;;;21.97;10.73;;;;;;;-3.50;100.00;102697.06;4999478;28;20450;-72
2021/03/02 03:35:08;;;;;;;21.73;9.80;;;;;;;-3.65;100.00;102695.28;5014682;28;20940;-72
2021/03/02 03:37:35;;;;;;;17.97;9.10;;;;;;;-3.65;100.00;102697.84;4997288;28;20558;-70
2021/03/02 03:40:03;;;;;;;23.93;10.10;;;;;;;-3.60;100.00;102693.03;5019288;28;20488;-73
2021/03/02 03:42:29;;;;;;;20.50;9.73;;;;;;;-3.65;100.00;102691.84;5011017;28;20567;-73
2021/03/02 03:44:56;;;;;;;18.60;9.17;;;;;;;-3.60;100.00;102692.16;5025832;28;20448;-72
2021/03/02 03:47:23;;;;;;;19.40;9.80;;;;;;;-3.67;100.00;102701.94;4992928;28;20941;-73
2021/03/02 03:49:49;;;;;;;19.23;9.70;;;;;;;-3.64;100.00;102696.16;5021214;28;21022;-71
2021/03/02 03:52:18;;;;;;;24.87;10.20;;;;;;;-3.65;100.00;102690.19;5016619;28;20449;-73
2021/03/02 03:54:47;;;;;;;19.00;9.77;;;;;;;-3.70;100.00;102695.78;5016468;28;20461;-72
2021/03/02 03:57:15;;;;;;;18.53;9.40;;;;;;;-3.72;100.00;102697.34;5018328;28;20449;-72
2021/03/02 03:59:43;;;;;;;19.33;9.97;;;;;;;-3.85;100.00;102691.44;5022628;28;20467;-74
2021/03/02 04:02:11;;;;;;;18.10;9.27;;;;;;;-4.02;100.00;102700.50;5019032;28;20988;-71
2021/03/02 04:04:39;;;;;;;26.13;10.57;;;;;;;-3.95;100.00;102704.34;5022780;28;20450;-73
2021/03/02 04:07:06;;;;;;;25.47;9.90;;;;;;;-3.96;100.00;102704.25;5021286;28;20483;-73
2021/03/02 04:09:35;;;;;;;19.90;10.00;;;;;;;-4.00;100.00;102706.59;5021637;28;20475;-72
2021/03/02 04:12:02;;;;;;;18.30;10.03;;;;;;;-3.90;100.00;102713.19;5024944;28;20741;-72
2021/03/02 04:14:32;;;;;;;23.30;9.17;;;;;;;-3.91;100.00;102725.84;5023687;28;20451;-70
2021/03/02 04:16:59;;;;;;;25.20;10.50;;;;;;;-3.84;100.00;102716.13;5026059;28;20455;-72
2021/03/02 04:19:26;;;;;;;19.13;9.77;;;;;;;-3.89;100.00;102702.19;5015339;28;20982;-73
2021/03/02 04:21:53;;;;;;;21.50;10.00;;;;;;;-3.87;100.00;102710.84;5016229;28;20859;-71
2021/03/02 04:24:20;;;;;;;17.77;9.10;;;;;;;-3.76;100.00;102711.56;5002199;28;21061;-72
2021/03/02 04:26:47;;;;;;;19.13;10.23;;;;;;;-3.85;100.00;102716.94;5021217;28;20483;-72
2021/03/02 04:29:14;;;;;;;21.10;10.77;;;;;;;-4.04;100.00;102719.03;5011442;28;20520;-70
2021/03/02 04:31:41;;;;;;;19.70;10.60;;;;;;;-4.10;100.00;102716.94;5020513;28;20471;-73
2021/03/02 04:34:07;;;;;;;21.87;9.73;;;;;;;-4.28;100.00;102716.59;5021195;28;20522;-73
2021/03/02 04:36:34;;;;;;;19.63;9.83;;;;;;;-4.21;100.00;102715.34;5028476;28;20462;-71
2021/03/02 04:39:01;;;;;;;20.87;10.17;;;;;;;-3.98;100.00;102714.34;5015182;28;20459;-72
2021/03/02 04:41:28;;;;;;;22.40;9.80;;;;;;;-3.96;100.00;102707.69;5020912;28;20843;-72
2021/03/02 04:43:55;;;;;;;19.97;10.27;;;;;;;-3.92;100.00;102703.66;5016313;28;20448;-73
2021/03/02 04:46:22;;;;;;;30.07;11.87;;;;;;;-3.89;100.00;102701.31;5020894;28;20488;-70
2021/03/02 04:48:49;;;;;;;19.63;10.77;;;;;;;-3.79;100.00;102697.72;5014214;28;20462;-73
2021/03/02 04:51:15;;;;;;;27.90;11.37;;;;;;;-3.95;100.00;102696.72;4995385;28;20494;-73
2021/03/02 04:53:42;;;;;;;26.50;11.63;;;;;;;-3.98;100.00;102701.59;5012357;28;20497;-70
2021/03/02 04:56:09;;;;;;;23.10;11.47;;;;;;;-4.00;100.00;102705.72;5015803;28;20447;-72
2021/03/02 04:58:36;;;;;;;29.00;12.80;;;;;;;-3.93;100.00;102697.69;4999554;28;20984;-72
2021/03/02 05:01:03;;;;;;;26.10;11.90;;;;;;;-3.86;100.00;102696.44;5012449;28;20832;-72
2021/03/02 05:03:30;;;;;;;22.33;10.87;;;;;;;-3.86;100.00;102701.53;5015730;28;20479;-71
2021/03/02 05:05:57;;;;;;;22.10;12.10;;;;;;;-3.82;100.00;102695.84;5014115;28;20444;-73
2021/03/02 05:08:24;;;;;;;23.90;11.83;;;;;;;-3.89;100.00;102696.22;5006706;28;20457;-72
2021/03/02 05:10:50;;;;;;;21.93;10.30;;;;;;;-3.78;100.00;102697.84;5023745;28;20480;-72
2021/03/02 05:13:17;;;;;;;22.67;10.83;;;;;;;-3.71;100.00;102706.75;5018743;28;20543;-72
2021/03/02 05:15:45;;;;;;;23.03;11.10;;;;;;;-3.66;100.00;102698.63;5014982;28;20848;-72
2021/03/02 05:18:12;;;;;;;21.50;10.43;;;;;;;-3.67;100.00;102701.94;4997197;28;20828;-73
2021/03/02 05:20:39;;;;;;;21.23;10.97;;;;;;;-3.78;100.00;102702.03;5017477;28;20480;-72
2021/03/02 05:23:06;;;;;;;25.53;12.03;;;;;;;-3.78;100.00;102695.28;5018923;28;20508;-73
2021/03/02 05:25:33;;;;;;;25.30;12.27;;;;;;;-3.85;100.00;102691.44;5009398;28;20445;-72
2021/03/02 05:28:00;;;;;;;22.70;11.50;;;;;;;-3.82;100.00;102699.31;5007782;28;20463;-71
2021/03/02 05:30:27;;;;;;;25.63;10.97;;;;;;;-3.71;100.00;102700.00;5011936;28;20487;-73
2021/03/02 05:32:53;;;;;;;33.87;12.87;;;;;;;-3.80;100.00;102712.13;5000607;28;20498;-72
2021/03/02 05:35:21;;;;;;;29.80;12.00;;;;;;;-3.79;100.00;102700.28;5009043;28;20461;-72
2021/03/02 05:37:48;;;;;;;30.07;11.77;;;;;;;-3.77;100.00;102709.78;5012285;28;20781;-69
2021/03/02 05:40:15;;;;;;;29.40;12.07;;;;;;;-3.63;100.00;102708.13;5015912;28;20596;-72
2021/03/02 05:42:42;;;;;;;33.93;12.47;;;;;;;-3.73;100.00;102704.13;5019373;28;20485;-70
2021/03/02 05:45:10;;;;;;;37.03;12.70;;;;;;;-3.81;100.00;102705.28;5017354;28;20482;-70
2021/03/02 05:47:39;;;;;;;32.80;12.10;;;;;;;-3.59;100.00;102709.22;5015179;28;20451;-72
2021/03/02 05:50:06;;;;;;;32.60;13.13;;;;;;;-3.70;100.00;102711.94;5019223;28;20481;-73
2021/03/02 05:52:33;;;;;;;35.93;13.37;;;;;;;-3.79;100.00;102716.44;5006974;28;20455;-72
2021/03/02 05:55:00;;;;;;;36.13;13.60;;;;;;;-3.88;100.00;102715.84;5019218;28;20837;-72
2021/03/02 05:57:27;;;;;;;31.60;12.80;;;;;;;-3.86;100.00;102711.72;5008073;28;20448;-72
2021/03/02 05:59:54;;;;;;;32.87;12.47;;;;;;;-3.67;100.00;102703.63;5018326;28;20524;-73
2021/03/02 06:02:21;;;;;;;37.77;13.93;;;;;;;-3.65;100.00;102702.06;5010050;28;20967;-72
2021/03/02 06:04:48;;;;;;;33.87;13.23;;;;;;;-3.76;100.00;102703.00;5008369;28;20465;-71
2021/03/02 06:07:14;;;;;;;36.50;13.90;;;;;;;-3.78;100.00;102702.94;5008666;28;20645;-73
2021/03/02 06:09:41;;;;;;;39.87;13.30;;;;;;;-3.81;100.00;102702.72;5010882;28;21128;-73
2021/03/02 06:12:07;;;;;;;40.33;14.07;;;;;;;-3.81;100.00;102710.38;4993850;28;20200;-73
2021/03/02 06:14:35;;;;;;;39.87;14.00;;;;;;;-3.60;100.00;102712.56;5015456;28;21492;-71
2021/03/02 06:17:02;;;;;;;37.73;13.20;;;;;;;-3.53;100.00;102718.16;5007640;28;20445;-71
2021/03/02 06:19:39;;;;;;;42.67;14.83;;;;;;;-3.47;100.00;102718.53;4981954;28;20797;-72
2021/03/02 06:22:05;;;;;;;35.13;12.87;;;;;;;-3.43;100.00;102717.97;5013958;28;21148;-72
2021/03/02 06:24:36;;;;;;;30.13;12.63;;;;;;;-3.47;100.00;102716.00;5003580;28;20460;-72
2021/03/02 06:27:10;;;;;;;37.87;13.37;;;;;;;-3.36;100.00;102721.81;5011702;28;20972;-71
2021/03/02 06:29:37;;;;;;;32.63;13.00;;;;;;;-3.33;100.00;102731.31;4995186;28;20496;-72
2021/03/02 06:32:03;;;;;;;39.37;13.83;;;;;;;-3.24;100.00;102729.34;5011359;28;20472;-73
2021/03/02 06:34:29;;;;;;;35.07;13.27;;;;;;;-3.24;100.00;102730.25;5009646;28;20850;-70
2021/03/02 06:37:00;;;;;;;29.13;11.70;;;;;;;-3.14;100.00;102733.38;5008329;28;20478;-72
2021/03/02 06:39:30;;;;;;;32.50;12.50;;;;;;;-3.12;100.00;102734.34;5013678;28;20805;-73
2021/03/02 06:42:14;;;;;;;35.00;13.40;;;;;;;-3.11;100.00;102734.44;5008247;28;20895;-72
2021/03/02 06:44:42;;;;;;;27.13;12.27;;;;;;;-3.02;100.00;102739.25;5006764;28;20477;-72
2021/03/02 06:47:08;;;;;;;36.40;12.77;;;;;;;-2.96;100.00;102743.84;5001551;28;20477;-70
2021/03/02 06:49:39;;;;;;;39.07;13.47;;;;;;;-2.97;100.00;102740.44;5018543;28;21372;-72
2021/03/02 06:52:17;;;;;;;37.17;12.90;;;;;;;-2.84;100.00;102741.19;5025785;28;20356;-73
2021/03/02 06:54:44;;;;;;;38.20;12.27;;;;;;;-2.90;100.00;102746.81;5013788;28;20195;-74
2021/03/02 06:57:10;;;;;;;28.07;12.27;;;;;;;-2.83;100.00;102751.50;5010102;28;20200;-72
2021/03/02 06:59:36;;;;;;;27.73;12.97;;;;;;;-2.77;100.00;102745.91;5010954;28;20601;-74
2021/03/02 07:02:03;;;;;;;33.57;13.33;;;;;;;-2.70;100.00;102748.91;5009075;28;20227;-73
2021/03/02 07:04:30;;;;;;;30.83;12.67;;;;;;;-2.64;100.00;102752.63;5000188;28;20200;-76
2021/03/02 07:06:58;;;;;;;30.83;13.10;;;;;;;-2.57;100.00;102747.13;5016820;28;20547;-72
2021/03/02 07:09:25;;;;;;;31.50;12.17;;;;;;;-2.39;100.00;102755.94;5013745;28;20232;-73
2021/03/02 07:11:54;;;;;;;37.53;12.87;;;;;;;-2.34;100.00;102753.63;5014035;28;20191;-73
2021/03/02 07:14:21;;;;;;;38.33;12.97;;;;;;;-2.32;100.00;102752.94;4999062;28;20236;-73
2021/03/02 07:16:48;;;;;;;28.80;12.80;;;;;;;-2.31;100.00;102752.13;5013791;28;20208;-73
2021/03/02 07:19:16;;;;;;;29.87;11.90;;;;;;;-2.26;100.00;102752.44;5012488;28;20196;-72
2021/03/02 07:21:44;;;;;;;27.87;12.33;;;;;;;-2.26;100.00;102756.66;5016099;28;20216;-73
2021/03/02 07:24:12;;;;;;;28.40;11.87;;;;;;;-2.26;100.00;102757.53;5017494;28;20236;-72
2021/03/02 07:26:43;;;;;;;30.60;10.77;;;;;;;-2.13;100.00;102760.06;5016695;28;20231;-73
2021/03/02 07:29:09;;;;;;;30.70;12.50;;;;;;;-1.99;100.00;102752.31;5009481;28;20204;-70
2021/03/02 07:31:37;;;;;;;31.37;12.77;;;;;;;-2.06;100.00;102756.16;4992851;28;20220;-72
2021/03/02 07:34:07;;;;;;;31.47;13.37;;;;;;;-2.04;100.00;102756.25;5006902;28;20200;-73
2021/03/02 07:36:36;;;;;;;29.23;13.33;;;;;;;-2.11;100.00;102753.34;5012325;28;20207;-73
2021/03/02 07:39:16;;;;;;;36.90;14.10;;;;;;;-1.99;100.00;102762.53;5018412;28;20705;-71
2021/03/02 07:41:43;;;;;;;38.73;13.23;;;;;;;-1.93;100.00;102761.22;5016749;28;20234;-72
2021/03/02 07:44:09;;;;;;;24.13;12.30;;;;;;;-1.94;100.00;102769.69;5018827;28;20200;-73
2021/03/02 07:46:44;;;;;;;30.57;12.20;;;;;;;-1.82;100.00;102766.97;5006885;28;20200;-73
2021/03/02 07:49:44;;;;;;;27.80;12.53;;;;;;;-1.87;100.00;102770.94;5006876;28;20576;-72
2021/03/02 07:52:23;;;;;;;28.07;11.50;;;;;;;-1.78;100.00;102763.78;4915295;29;20295;-74
2021/03/02 07:55:20;;;;;;;25.90;9.97;;;;;;;-1.79;100.00;102777.41;4908538;29;20210;-73
2021/03/02 07:57:47;;;;;;;27.10;11.47;;;;;;;-1.66;100.00;102781.53;4976765;28;20209;-74
2021/03/02 08:00:24;;;;;;;27.27;11.03;;;;;;;-1.59;100.00;102786.22;4993953;28;20219;-72
2021/03/02 08:03:18;;;;;;;25.30;11.33;;;;;;;-1.43;100.00;102782.00;5008469;28;20244;-73
2021/03/02 08:05:44;;;;;;;30.97;10.73;;;;;;;-1.48;100.00;102788.53;5003190;28;20200;-73
2021/03/02 08:08:29;;;;;;;34.30;13.03;;;;;;;-1.31;100.00;102780.13;5013195;28;20689;-73
2021/03/02 08:10:58;;;;;;;27.83;11.80;;;;;;;-1.24;100.00;102781.38;5006507;28;20228;-73
2021/03/02 08:13:38;;;;;;;26.20;11.57;;;;;;;-1.17;100.00;102781.78;5010019;28;20218;-73
2021/03/02 08:16:06;;;;;;;34.20;13.43;;;;;;;-1.02;100.00;102780.88;4984725;28;20200;-72
2021/03/02 08:18:34;;;;;;;28.53;12.80;;;;;;;-1.05;100.00;102771.38;4998287;28;20192;-73
2021/03/02 08:21:05;;;;;;;27.97;12.67;;;;;;;-1.00;100.00;102769.94;5008863;28;20236;-74
2021/03/02 08:23:53;;;;;;;31.37;12.60;;;;;;;-0.91;100.00;102769.59;5010658;28;20836;-73
2021/03/02 08:26:29;;;;;;;25.10;11.17;;;;;;;-0.74;100.00;102772.16;4981823;28;20262;-73
2021/03/02 08:29:06;;;;;;;25.10;12.10;;;;;;;-0.64;100.00;102766.75;5004145;28;20631;-73
2021/03/02 08:31:32;;;;;;;35.10;11.57;;;;;;;-0.63;100.00;102766.84;4983213;28;20212;-72
2021/03/02 08:33:59;;;;;;;30.50;13.70;;;;;;;-0.45;100.00;102769.50;5008652;28;20199;-73
2021/03/02 08:36:26;;;;;;;26.80;13.07;;;;;;;-0.44;100.00;102763.59;5007197;28;20207;-72
2021/03/02 08:38:52;;;;;;;29.93;13.53;;;;;;;-0.29;100.00;102758.38;5004206;28;20188;-72
2021/03/02 08:41:28;;;;;;;30.33;13.27;;;;;;;-0.12;100.00;102759.25;5005804;28;20697;-74
2021/03/02 08:43:54;;;;;;;33.57;14.57;;;;;;;-0.06;100.00;102754.44;5015384;28;20669;-73
2021/03/02 08:46:25;;;;;;;35.23;14.83;;;;;;;0.06;100.00;102750.75;5010624;28;20308;-72
2021/03/02 08:48:51;;;;;;;36.90;16.20;;;;;;;0.16;100.00;102747.84;5014314;28;20219;-73
2021/03/02 08:51:20;;;;;;;39.97;16.00;;;;;;;0.13;100.00;102750.25;5001878;28;20588;-73
2021/03/02 08:53:48;;;;;;;44.10;16.20;;;;;;;0.31;100.00;102756.31;4995150;28;20205;-72
2021/03/02 08:56:24;;;;;;;35.87;14.67;;;;;;;0.47;100.00;102754.50;5008002;28;20205;-74
2021/03/02 08:58:52;;;;;;;36.37;14.87;;;;;;;0.55;100.00;102750.63;5014032;28;20195;-74
2021/03/02 09:01:30;;;;;;;34.73;15.07;;;;;;;0.74;100.00;102753.28;5008330;28;20215;-74
2021/03/02 09:04:08;;;;;;;32.97;14.80;;;;;;;0.79;100.00;102755.19;4989954;28;20581;-74
2021/03/02 09:06:34;;;;;;;39.27;15.83;;;;;;;0.81;100.00;102757.03;5005091;28;20196;-74
2021/03/02 09:09:02;;;;;;;38.57;17.37;;;;;;;0.85;100.00;102755.50;5017211;28;20204;-73
2021/03/02 09:11:30;;;;;;;41.53;18.20;;;;;;;0.97;100.00;102756.09;5012656;28;20689;-74
2021/03/02 09:13:58;;;;;;;37.60;15.87;;;;;;;1.08;100.00;102748.88;5018139;28;20196;-74
2021/03/02 09:16:34;;;;;;;41.20;16.63;;;;;;;1.14;100.00;102749.16;5009265;28;20283;-73
2021/03/02 09:19:02;;;;;;;39.53;17.07;;;;;;;1.19;100.00;102745.09;5006176;28;20263;-73
2021/03/02 09:21:29;;;;;;;40.80;17.80;;;;;;;1.22;100.00;102752.09;5009512;28;20221;-71
2021/03/02 09:23:56;;;;;;;46.40;20.13;;;;;;;1.28;100.00;102752.34;5011983;28;20328;-74
2021/03/02 09:26:23;;;;;;;41.07;16.83;;;;;;;1.29;100.00;102756.69;5013246;28;20207;-72
2021/03/02 09:28:54;;;;;;;42.77;17.03;;;;;;;1.37;100.00;102760.50;5014368;28;20198;-73
2021/03/02 09:31:21;;;;;;;35.60;16.13;;;;;;;1.44;100.00;102757.41;5020212;28;20223;-70
2021/03/02 09:33:49;;;;;;;49.60;19.97;;;;;;;1.44;100.00;102762.56;5010174;28;20207;-72
2021/03/02 09:36:16;;;;;;;59.07;23.90;;;;;;;1.52;100.00;102758.63;5001213;28;20663;-73
2021/03/02 09:38:42;;;;;;;47.37;20.63;;;;;;;1.66;100.00;102764.38;5015942;28;20667;-73
2021/03/02 09:41:08;;;;;;;48.23;20.27;;;;;;;1.80;100.00;102765.00;5000949;28;20569;-74
2021/03/02 09:43:35;;;;;;;55.23;21.07;;;;;;;1.87;100.00;102773.88;5013900;28;20216;-73
2021/03/02 09:46:01;;;;;;;52.53;21.77;;;;;;;1.92;100.00;102764.66;5015903;28;20196;-73
2021/03/02 09:48:28;;;;;;;53.50;20.23;;;;;;;2.08;100.00;102767.09;5013984;28;20205;-73
2021/03/02 09:50:54;;;;;;;46.47;20.53;;;;;;;2.24;100.00;102770.31;5016276;28;20887;-73
2021/03/02 09:53:20;;;;;;;55.97;20.13;;;;;;;2.37;100.00;102771.72;5012263;28;20205;-73
2021/03/02 09:55:47;;;;;;;49.33;20.03;;;;;;;2.44;100.00;102766.88;5015275;28;20258;-71
2021/03/02 09:58:16;;;;;;;46.17;19.73;;;;;;;2.51;100.00;102770.56;4993258;28;20201;-73
2021/03/02 10:00:48;;;;;;;60.13;21.37;;;;;;;2.70;100.00;102769.63;5013787;28;20221;-74
2021/03/02 10:03:17;;;;;;;54.47;18.73;;;;;;;2.87;100.00;102762.59;5006500;28;20759;-73
2021/03/02 10:05:46;;;;;;;58.17;19.97;;;;;;;2.98;100.00;102771.63;5020702;28;20227;-71
2021/03/02 10:08:31;;;;;;;55.33;20.47;;;;;;;3.19;100.00;102768.13;5013832;28;20262;-71
2021/03/02 10:10:59;;;;;;;49.60;19.57;;;;;;;3.30;98.76;102765.97;5013456;28;20208;-72
2021/03/02 10:13:30;;;;;;;65.13;21.80;;;;;;;3.40;97.10;102766.38;5014687;28;20212;-73
2021/03/02 10:16:15;;;;;;;68.10;22.10;;;;;;;3.46;96.38;102770.88;5008807;28;20200;-73
2021/03/02 10:18:50;;;;;;;65.60;22.40;;;;;;;3.71;95.62;102761.44;5009744;28;20206;-73
2021/03/02 10:21:18;;;;;;;66.13;22.77;;;;;;;3.92;94.44;102763.91;5015716;28;20739;-73
2021/03/02 10:23:46;;;;;;;69.23;22.77;;;;;;;3.97;93.29;102762.38;5016216;28;20219;-73
2021/03/02 10:26:18;;;;;;;69.73;24.20;;;;;;;4.01;93.12;102760.78;5010381;28;20717;-73
2021/03/02 10:28:44;;;;;;;70.47;24.00;;;;;;;4.16;92.04;102771.66;4989552;28;20719;-72
2021/03/02 10:31:10;;;;;;;61.43;23.33;;;;;;;4.19;91.39;102771.78;5009049;28;20225;-72
2021/03/02 10:33:36;;;;;;;64.07;22.47;;;;;;;4.31;92.57;102764.44;5013914;28;20199;-73
2021/03/02 10:36:02;;;;;;;53.03;21.87;;;;;;;4.49;93.18;102758.13;5009416;28;20766;-72
2021/03/02 10:38:29;;;;;;;52.27;20.70;;;;;;;4.57;91.99;102761.81;4997496;28;20197;-71
2021/03/02 10:40:55;;;;;;;51.10;19.83;;;;;;;4.67;92.19;102761.31;5011397;28;20225;-73
2021/03/02 10:43:21;;;;;;;50.83;21.30;;;;;;;4.84;90.29;102759.28;5002465;28;20309;-73
2021/03/02 10:45:47;;;;;;;42.97;19.27;;;;;;;4.99;90.83;102753.69;5007288;28;20248;-73
2021/03/02 10:48:13;;;;;;;52.07;20.57;;;;;;;5.02;89.79;102756.38;5008185;28;20204;-72
2021/03/02 10:50:39;;;;;;;48.73;20.00;;;;;;;5.09;89.72;102752.28;4996671;28;20303;-72
2021/03/02 10:53:05;;;;;;;42.57;19.10;;;;;;;5.17;89.76;102753.41;5010110;28;20207;-72
2021/03/02 10:55:32;;;;;;;39.47;18.10;;;;;;;5.25;88.74;102748.44;5013464;28;20553;-72
2021/03/02 10:57:58;;;;;;;41.53;18.53;;;;;;;5.38;88.35;102757.44;5021145;28;20200;-73
2021/03/02 11:00:25;;;;;;;39.90;18.97;;;;;;;5.49;87.28;102758.66;5008995;28;20213;-72
2021/03/02 11:02:50;;;;;;;38.93;16.83;;;;;;;5.63;87.25;102748.69;5011990;28;20215;-72
2021/03/02 11:05:16;;;;;;;42.43;18.47;;;;;;;5.81;87.66;102750.91;5005857;28;20252;-72
2021/03/02 11:07:42;;;;;;;36.90;17.97;;;;;;;5.93;86.73;102745.16;5007435;28;20230;-72
2021/03/02 11:10:10;;;;;;;36.37;16.93;;;;;;;6.01;87.31;102730.75;5008937;28;20639;-73
2021/03/02 11:12:39;;;;;;;36.57;17.80;;;;;;;6.14;87.35;102730.25;5010997;28;20193;-72